Time;durP1;ratioP1;P1;durP2;ratioP2;P2;SDS_P1;SDS_P2;PMS_P1;PMS_P2;Temp;Humidity;BMP_temperature;BMP_pressure;BME280_temperature;BME280_humidity;BME280_pressure;Samples;Min_cycle;Max_cycle;Signal;HPM_P1;HPM_P2
2022/08/01 00:00:07;;;;;;;17.80;16.00;;;;;;;-144.27;100.00;69759.91;2066823;28;20443;-72
2022/08/01 00:01:08;;;;;;;17.87;15.70;;;;;;;-144.27;100.00;69759.91;2066153;28;20204;-71
2022/08/01 00:02:09;;;;;;;18.00;16.23;;;;;;;-144.27;100.00;69759.91;2066210;28;20470;-71
2022/08/01 00:03:11;;;;;;;18.33;15.80;;;;;;;-144.27;100.00;69759.91;2066715;28;20232;-72
2022/08/01 00:04:14;;;;;;;18.20;16.30;;;;;;;-144.27;100.00;69759.91;2066124;28;20443;-71
2022/08/01 00:05:15;;;;;;;17.50;15.70;;;;;;;-144.27;100.00;69759.91;2066217;28;20428;-72
2022/08/01 00:06:18;;;;;;;18.20;15.93;;;;;;;-144.27;100.00;69759.91;2065663;28;20491;-72
2022/08/01 00:07:20;;;;;;;18.47;16.53;;;;;;;-144.27;100.00;69759.91;2066196;28;20189;-71
2022/08/01 00:08:21;;;;;;;17.53;15.83;;;;;;;-144.27;100.00;69759.91;2058064;28;21105;-72
2022/08/01 00:09:22;;;;;;;17.37;15.80;;;;;;;-144.27;100.00;69759.91;2058094;28;20930;-71
2022/08/01 00:10:23;;;;;;;16.80;15.07;;;;;;;-144.27;100.00;69759.91;2066750;28;20199;-72
2022/08/01 00:11:24;;;;;;;18.60;16.20;;;;;;;-144.27;100.00;69759.91;2066941;28;20432;-71
2022/08/01 00:12:27;;;;;;;19.70;14.93;;;;;;;-144.27;100.00;69759.91;2066029;28;20572;-71
2022/08/01 00:13:29;;;;;;;19.53;15.90;;;;;;;-144.27;100.00;69759.91;2058334;28;20205;-71
2022/08/01 00:14:33;;;;;;;17.97;16.03;;;;;;;-144.27;100.00;69759.91;2058081;28;20492;-72
2022/08/01 00:15:34;;;;;;;17.20;15.57;;;;;;;-144.27;100.00;69759.91;2066708;28;20436;-71
2022/08/01 00:16:36;;;;;;;19.93;16.13;;;;;;;-144.27;100.00;69759.91;2065962;28;20546;-72
2022/08/01 00:17:37;;;;;;;21.43;15.67;;;;;;;-144.27;100.00;69759.91;2065644;28;20215;-72
2022/08/01 00:18:40;;;;;;;22.10;16.23;;;;;;;-144.27;100.00;69759.91;2057968;28;20496;-72
2022/08/01 00:19:43;;;;;;;22.37;16.20;;;;;;;-144.27;100.00;69759.91;2066671;28;20432;-72
2022/08/01 00:20:44;;;;;;;20.23;16.00;;;;;;;-144.27;100.00;69759.91;2066209;28;20463;-72
2022/08/01 00:21:47;;;;;;;17.43;15.63;;;;;;;-144.27;100.00;69759.91;2065816;28;20449;-71
2022/08/01 00:22:49;;;;;;;18.43;16.43;;;;;;;-144.27;100.00;69759.91;2066628;28;20200;-72
2022/08/01 00:23:50;;;;;;;18.13;16.00;;;;;;;-144.27;100.00;69759.91;2066006;28;20464;-72
2022/08/01 00:24:51;;;;;;;20.77;16.20;;;;;;;-144.27;100.00;69759.91;2066043;28;20189;-71
2022/08/01 00:25:54;;;;;;;17.90;15.90;;;;;;;-144.27;100.00;69759.91;2066639;28;20436;-72
2022/08/01 00:27:00;;;;;;;18.57;15.43;;;;;;;-144.27;100.00;69759.91;2066194;28;20205;-72
2022/08/01 00:28:00;;;;;;;18.10;16.25;;;;;;;-144.27;100.00;69759.91;2065934;28;20459;-72
2022/08/01 00:29:02;;;;;;;18.60;16.60;;;;;;;-144.27;100.00;69759.91;2065642;28;20651;-72
2022/08/01 00:30:04;;;;;;;18.73;16.60;;;;;;;-144.27;100.00;69759.91;2058220;28;20692;-72
2022/08/01 00:31:05;;;;;;;20.88;15.90;;;;;;;-144.27;100.00;69759.91;2066550;28;20223;-72
2022/08/01 00:32:06;;;;;;;25.58;16.58;;;;;;;-144.27;100.00;69759.91;2065965;28;20678;-71
2022/08/01 00:33:08;;;;;;;20.03;16.63;;;;;;;-144.27;100.00;69759.91;2057800;28;20596;-72
2022/08/01 00:34:11;;;;;;;19.33;16.27;;;;;;;-144.27;100.00;69759.91;2050106;28;20689;-72
2022/08/01 00:35:13;;;;;;;19.42;17.40;;;;;;;-144.27;100.00;69759.91;2058444;28;20200;-72
2022/08/01 00:36:14;;;;;;;19.20;17.20;;;;;;;-144.27;100.00;69759.91;2066080;28;20232;-72
2022/08/01 00:37:15;;;;;;;20.77;18.13;;;;;;;-144.27;100.00;69759.91;2066496;28;20483;-71
2022/08/01 00:38:16;;;;;;;23.20;17.90;;;;;;;-144.27;100.00;69759.91;2066632;28;20197;-72
2022/08/01 00:39:18;;;;;;;18.43;16.53;;;;;;;-144.27;100.00;69759.91;2057968;28;20228;-72
2022/08/01 00:40:18;;;;;;;22.50;17.38;;;;;;;-144.27;100.00;69759.91;2049916;28;20266;-71
2022/08/01 00:41:20;;;;;;;22.53;17.27;;;;;;;-144.27;100.00;69759.91;2049809;29;20202;-71
2022/08/01 00:42:21;;;;;;;19.20;17.20;;;;;;;-144.27;100.00;69759.91;2049825;28;20202;-71
2022/08/01 00:43:23;;;;;;;21.03;18.83;;;;;;;-144.27;100.00;69759.91;2057897;28;20903;-72
2022/08/01 00:44:23;;;;;;;20.23;17.65;;;;;;;-144.27;100.00;69759.91;2066024;28;20232;-72
2022/08/01 00:45:25;;;;;;;23.77;18.57;;;;;;;-144.27;100.00;69759.91;2065916;28;20201;-71
2022/08/01 00:46:27;;;;;;;24.17;18.02;;;;;;;-144.27;100.00;69759.91;2057746;28;20688;-71
2022/08/01 00:47:28;;;;;;;19.67;17.53;;;;;;;-144.27;100.00;69759.91;2058014;28;20193;-72
2022/08/01 00:48:31;;;;;;;19.75;17.75;;;;;;;-144.27;100.00;69759.91;2066576;28;20519;-71
2022/08/01 00:49:35;;;;;;;22.77;17.57;;;;;;;-144.27;100.00;69759.91;2066544;28;20201;-72
2022/08/01 00:50:36;;;;;;;20.27;18.38;;;;;;;-144.27;100.00;69759.91;2066566;28;20915;-72
2022/08/01 00:51:38;;;;;;;20.10;18.00;;;;;;;-144.27;100.00;69759.91;2065993;28;20303;-71
2022/08/01 00:52:41;;;;;;;21.40;18.67;;;;;;;-144.27;100.00;69759.91;2066550;28;20193;-71
2022/08/01 00:53:44;;;;;;;20.75;18.48;;;;;;;-144.27;100.00;69759.91;2066615;28;20227;-71
2022/08/01 00:54:47;;;;;;;20.48;18.35;;;;;;;-144.27;100.00;69759.91;2066603;28;20185;-71
2022/08/01 00:55:49;;;;;;;20.67;18.50;;;;;;;-144.27;100.00;69759.91;2065666;28;20231;-71
2022/08/01 00:56:51;;;;;;;21.17;18.47;;;;;;;-144.27;100.00;69759.91;2065762;28;21006;-72
2022/08/01 00:57:52;;;;;;;22.33;18.85;;;;;;;-144.27;100.00;69759.91;2057813;28;20520;-72
2022/08/01 00:58:55;;;;;;;20.87;18.23;;;;;;;-144.27;100.00;69759.91;2065719;28;20193;-71
2022/08/01 00:59:56;;;;;;;24.10;19.05;;;;;;;-144.27;100.00;69759.91;2065548;28;20678;-72
2022/08/01 01:00:57;;;;;;;20.00;18.00;;;;;;;-144.27;100.00;69759.91;2057776;28;20550;-71
2022/08/01 01:01:58;;;;;;;19.13;17.23;;;;;;;-144.27;100.00;69759.91;2065657;28;20276;-72
2022/08/01 01:03:00;;;;;;;18.97;16.93;;;;;;;-144.27;100.00;69759.91;2065818;28;20287;-71
2022/08/01 01:04:03;;;;;;;29.55;18.10;;;;;;;-144.27;100.00;69759.91;2066304;28;20212;-71
2022/08/01 01:05:09;;;;;;;22.20;18.92;;;;;;;-144.27;100.00;69759.91;2066544;28;20224;-72
2022/08/01 01:06:34;;;;;;;20.40;17.20;;;;;;;-144.27;100.00;69759.91;2065897;28;20588;-72
2022/08/01 01:07:42;;;;;;;21.92;19.33;;;;;;;-144.27;100.00;69759.91;2066515;28;20239;-72
2022/08/01 01:08:48;;;;;;;22.38;18.80;;;;;;;-144.27;100.00;69759.91;2066325;28;20200;-71
2022/08/01 01:09:57;;;;;;;20.42;18.25;;;;;;;-144.27;100.00;69759.91;2066322;28;20166;-72
2022/08/01 01:11:04;;;;;;;27.63;19.00;;;;;;;-144.27;100.00;69759.91;2066237;28;20281;-72
2022/08/01 01:12:17;;;;;;;21.83;18.60;;;;;;;-144.27;100.00;69759.91;2057622;28;20193;-72
2022/08/01 01:13:27;;;;;;;21.10;18.52;;;;;;;-144.27;100.00;69759.91;2051088;28;20210;-71
2022/08/01 01:14:37;;;;;;;20.77;17.77;;;;;;;-144.27;100.00;69759.91;2059380;28;20166;-71
2022/08/01 01:15:41;;;;;;;20.50;18.35;;;;;;;-144.27;100.00;69759.91;2066235;28;20201;-71
2022/08/01 01:16:43;;;;;;;22.45;18.58;;;;;;;-144.27;100.00;69759.91;2066263;28;20185;-71
2022/08/01 01:17:49;;;;;;;19.25;17.40;;;;;;;-144.27;100.00;69759.91;2066440;28;20224;-71
2022/08/01 01:18:54;;;;;;;20.33;18.13;;;;;;;-144.27;100.00;69759.91;2066118;28;20232;-71
2022/08/01 01:19:57;;;;;;;19.73;17.75;;;;;;;-144.27;100.00;69759.91;2066394;28;20189;-71
2022/08/01 01:21:07;;;;;;;18.95;17.00;;;;;;;-144.27;100.00;69759.91;2056931;28;20760;-71
2022/08/01 01:22:21;;;;;;;19.65;17.55;;;;;;;-144.27;100.00;69759.91;2058826;28;20179;-71
2022/08/01 01:23:34;;;;;;;19.02;17.02;;;;;;;-144.27;100.00;69759.91;2065576;28;20223;-71
2022/08/01 01:24:41;;;;;;;19.63;16.23;;;;;;;-144.27;100.00;69759.91;2057463;28;20193;-71
2022/08/01 01:26:27;;;;;;;25.02;17.63;;;;;;;-144.27;100.00;69759.91;2058449;28;20174;-71
2022/08/01 01:27:39;;;;;;;21.10;17.13;;;;;;;-144.27;100.00;69759.91;2061237;28;20211;-72
2022/08/01 01:28:52;;;;;;;21.33;16.15;;;;;;;-144.27;100.00;69759.91;2057499;28;20202;-72
2022/08/01 01:29:54;;;;;;;19.58;16.30;;;;;;;-144.27;100.00;69759.91;2050906;28;20356;-71
2022/08/01 01:30:57;;;;;;;19.42;16.83;;;;;;;-144.27;100.00;69759.91;2049567;28;20206;-71
2022/08/01 01:32:03;;;;;;;19.42;16.48;;;;;;;-144.27;100.00;69759.91;2057895;28;20202;-72
2022/08/01 01:33:07;;;;;;;17.30;15.50;;;;;;;-144.27;100.00;69759.91;2057445;28;20637;-73
2022/08/01 01:34:10;;;;;;;19.48;16.58;;;;;;;-144.27;100.00;69759.91;2057884;28;20201;-72
2022/08/01 01:35:16;;;;;;;19.40;16.33;;;;;;;-144.27;100.00;69759.91;2065499;28;20201;-71
2022/08/01 01:36:20;;;;;;;18.45;16.65;;;;;;;-144.27;100.00;69759.91;2064271;28;20237;-71
2022/08/01 01:37:24;;;;;;;17.95;16.23;;;;;;;-144.27;100.00;69759.91;2049681;28;20206;-72
2022/08/01 01:38:28;;;;;;;21.77;17.00;;;;;;;-144.27;100.00;69759.91;2057827;28;20276;-71
2022/08/01 01:39:30;;;;;;;18.60;16.90;;;;;;;-144.27;100.00;69759.91;2066182;28;20193;-71
2022/08/01 01:40:31;;;;;;;19.48;17.55;;;;;;;-144.27;100.00;69759.91;2066086;28;20234;-71
2022/08/01 01:41:34;;;;;;;18.20;16.60;;;;;;;-144.27;100.00;69759.91;2057421;28;20206;-72
2022/08/01 01:42:35;;;;;;;19.20;16.90;;;;;;;-144.27;100.00;69759.91;2057467;28;20383;-72
2022/08/01 01:43:39;;;;;;;19.35;17.08;;;;;;;-144.27;100.00;69759.91;2057309;28;20252;-72
2022/08/01 01:44:43;;;;;;;17.75;15.80;;;;;;;-144.27;100.00;69759.91;2057778;28;20257;-71
2022/08/01 01:45:45;;;;;;;24.47;17.20;;;;;;;-144.27;100.00;69759.91;2057335;28;20198;-71
2022/08/01 01:46:47;;;;;;;19.40;17.33;;;;;;;-144.27;100.00;69759.91;2049513;28;20453;-72
2022/08/01 01:47:50;;;;;;;18.70;16.65;;;;;;;-144.27;100.00;69759.91;2057637;28;20529;-72
2022/08/01 01:48:52;;;;;;;18.77;16.77;;;;;;;-144.27;100.00;69759.91;2057259;28;20197;-72
2022/08/01 01:49:56;;;;;;;18.10;16.40;;;;;;;-144.27;100.00;69759.91;2057580;28;20186;-71
2022/08/01 01:50:57;;;;;;;20.38;16.65;;;;;;;-144.27;100.00;69759.91;2065517;28;20197;-72
2022/08/01 01:51:59;;;;;;;20.85;16.85;;;;;;;-144.27;100.00;69759.91;2065394;28;20276;-71
2022/08/01 01:53:01;;;;;;;24.63;16.88;;;;;;;-144.27;100.00;69759.91;2065432;28;20197;-73
2022/08/01 01:54:04;;;;;;;18.67;16.77;;;;;;;-144.27;100.00;69759.91;2057254;28;20644;-71
2022/08/01 01:55:08;;;;;;;20.02;17.20;;;;;;;-144.27;100.00;69759.91;2057474;28;20269;-71
2022/08/01 01:56:11;;;;;;;22.10;16.85;;;;;;;-144.27;100.00;69759.91;2066097;28;20189;-71
2022/08/01 01:57:13;;;;;;;20.58;16.73;;;;;;;-144.27;100.00;69759.91;2065868;28;20244;-71
2022/08/01 01:58:16;;;;;;;19.15;17.20;;;;;;;-144.27;100.00;69759.91;2065586;28;20260;-71
2022/08/01 01:59:19;;;;;;;19.30;17.45;;;;;;;-144.27;100.00;69759.91;2056996;28;20201;-71
2022/08/01 02:00:23;;;;;;;19.42;17.58;;;;;;;-144.27;100.00;69759.91;2049656;28;20293;-72
2022/08/01 02:01:25;;;;;;;18.92;17.00;;;;;;;-144.27;100.00;69759.91;2058042;28;20193;-71
2022/08/01 02:02:28;;;;;;;19.15;17.05;;;;;;;-144.27;100.00;69759.91;2065930;28;20197;-72
2022/08/01 02:03:30;;;;;;;18.08;16.08;;;;;;;-144.27;100.00;69759.91;2065990;28;20200;-72
2022/08/01 02:04:33;;;;;;;17.42;15.63;;;;;;;-144.27;100.00;69759.91;2066135;28;20697;-71
2022/08/01 02:05:35;;;;;;;17.88;16.15;;;;;;;-144.27;100.00;69759.91;2065930;28;20590;-72
2022/08/01 02:06:38;;;;;;;19.23;17.13;;;;;;;-144.27;100.00;69759.91;2066133;28;20216;-71
2022/08/01 02:07:40;;;;;;;19.10;16.95;;;;;;;-144.27;100.00;69759.91;2057215;28;20202;-72
2022/08/01 02:08:43;;;;;;;22.20;17.05;;;;;;;-144.27;100.00;69759.91;2057349;28;20186;-71
2022/08/01 02:09:45;;;;;;;18.20;16.25;;;;;;;-144.27;100.00;69759.91;2066011;28;20205;-71
2022/08/01 02:12:03;;;;;;;19.45;15.95;;;;;;;-144.27;100.00;69759.91;2050433;28;20206;-72
2022/08/01 02:13:06;;;;;;;19.65;15.70;;;;;;;-144.27;100.00;69759.91;2056979;28;20190;-71
2022/08/01 02:14:09;;;;;;;17.70;15.90;;;;;;;-144.27;100.00;69759.91;2065288;28;20709;-72
2022/08/01 02:15:10;;;;;;;18.83;15.43;;;;;;;-144.27;100.00;69759.91;2065345;28;20699;-71
2022/08/01 02:16:14;;;;;;;18.42;15.50;;;;;;;-144.27;100.00;69759.91;2065230;28;20801;-71
2022/08/01 02:17:17;;;;;;;22.98;15.75;;;;;;;-144.27;100.00;69759.91;2064835;28;20204;-72
2022/08/01 02:18:19;;;;;;;23.88;16.13;;;;;;;-144.27;100.00;69759.91;2049210;28;20238;-71
2022/08/01 02:19:20;;;;;;;23.73;17.60;;;;;;;-144.27;100.00;69759.91;2057463;28;20173;-72
2022/08/01 02:20:22;;;;;;;18.90;15.90;;;;;;;-144.27;100.00;69759.91;2057096;28;20224;-71
2022/08/01 02:21:26;;;;;;;20.70;16.92;;;;;;;-144.27;100.00;69759.91;2048827;28;20249;-71
2022/08/01 02:22:32;;;;;;;18.65;16.65;;;;;;;-144.27;100.00;69759.91;2057688;28;20188;-71
2022/08/01 02:23:35;;;;;;;22.75;17.77;;;;;;;-144.27;100.00;69759.91;2065922;28;20193;-71
2022/08/01 02:24:39;;;;;;;18.98;16.98;;;;;;;-144.27;100.00;69759.91;2065181;28;20284;-72
2022/08/01 02:25:44;;;;;;;19.63;17.52;;;;;;;-144.27;100.00;69759.91;2065272;28;20227;-71
2022/08/01 02:26:48;;;;;;;20.65;18.30;;;;;;;-144.27;100.00;69759.91;2065805;28;20189;-72
2022/08/01 02:27:54;;;;;;;20.20;17.17;;;;;;;-144.27;100.00;69759.91;2065877;28;20193;-71
2022/08/01 02:28:58;;;;;;;18.58;16.77;;;;;;;-144.27;100.00;69759.91;2066060;28;20554;-73
2022/08/01 02:30:00;;;;;;;17.90;16.10;;;;;;;-144.27;100.00;69759.91;2065303;28;20241;-72
2022/08/01 02:31:05;;;;;;;21.13;17.25;;;;;;;-144.27;100.00;69759.91;2065259;28;20503;-72
2022/08/01 02:32:17;;;;;;;21.92;17.48;;;;;;;-144.27;100.00;69759.91;2057130;28;20193;-71
2022/08/01 02:33:21;;;;;;;18.70;16.80;;;;;;;-144.27;100.00;69759.91;2058396;28;20660;-72
2022/08/01 02:34:25;;;;;;;22.48;18.63;;;;;;;-144.27;100.00;69759.91;2065695;28;20255;-71
2022/08/01 02:35:27;;;;;;;22.30;18.70;;;;;;;-144.27;100.00;69759.91;2066030;28;20224;-72
2022/08/01 02:36:29;;;;;;;23.98;19.40;;;;;;;-144.27;100.00;69759.91;2065371;28;20271;-71
2022/08/01 02:37:33;;;;;;;22.40;20.00;;;;;;;-144.27;100.00;69759.91;2065696;28;20278;-71
2022/08/01 02:38:37;;;;;;;25.58;18.98;;;;;;;-144.27;100.00;69759.91;2065146;28;20252;-71
2022/08/01 02:39:42;;;;;;;23.88;18.75;;;;;;;-144.27;100.00;69759.91;2064779;28;20189;-71
2022/08/01 02:40:46;;;;;;;20.33;18.17;;;;;;;-144.27;100.00;69759.91;2049555;28;20210;-71
2022/08/01 02:41:49;;;;;;;22.38;19.02;;;;;;;-144.27;100.00;69759.91;2049478;28;20201;-71
2022/08/01 02:42:52;;;;;;;23.60;18.50;;;;;;;-144.27;100.00;69759.91;2057362;28;20569;-72
2022/08/01 02:43:59;;;;;;;21.50;18.88;;;;;;;-144.27;100.00;69759.91;2057100;28;20189;-71
2022/08/01 02:45:03;;;;;;;26.17;20.27;;;;;;;-144.27;100.00;69759.91;2058346;28;20185;-71
2022/08/01 02:46:06;;;;;;;24.45;19.98;;;;;;;-144.27;100.00;69759.91;2065239;28;20189;-71
2022/08/01 02:47:10;;;;;;;23.45;19.02;;;;;;;-144.27;100.00;69759.91;2065224;28;20204;-71
2022/08/01 02:48:15;;;;;;;26.17;19.42;;;;;;;-144.27;100.00;69759.91;2049512;28;20603;-71
2022/08/01 02:49:16;;;;;;;25.95;19.33;;;;;;;-144.27;100.00;69759.91;2057642;28;20217;-71
2022/08/01 02:50:19;;;;;;;24.13;20.35;;;;;;;-144.27;100.00;69759.91;2065954;28;20196;-71
2022/08/01 02:51:24;;;;;;;22.95;20.02;;;;;;;-144.27;100.00;69759.91;2065511;28;20227;-71
2022/08/01 02:52:28;;;;;;;26.58;20.52;;;;;;;-144.27;100.00;69759.91;2065844;28;20240;-71
2022/08/01 02:53:31;;;;;;;31.10;21.88;;;;;;;-144.27;100.00;69759.91;2065779;28;20189;-72
2022/08/01 02:54:34;;;;;;;26.13;21.83;;;;;;;-144.27;100.00;69759.91;2057027;28;20193;-72
2022/08/01 02:55:35;;;;;;;24.42;20.75;;;;;;;-144.27;100.00;69759.91;2057442;28;20675;-72
2022/08/01 02:56:37;;;;;;;26.85;21.45;;;;;;;-144.27;100.00;69759.91;2065174;28;20201;-71
2022/08/01 02:57:39;;;;;;;29.35;22.25;;;;;;;-144.27;100.00;69759.91;2064837;28;20316;-71
2022/08/01 02:58:41;;;;;;;28.58;21.92;;;;;;;-144.27;100.00;69759.91;2057456;28;20641;-71
2022/08/01 02:59:43;;;;;;;31.42;23.20;;;;;;;-144.27;100.00;69759.91;2065027;28;20219;-72
2022/08/01 03:00:46;;;;;;;30.42;22.90;;;;;;;-144.27;100.00;69759.91;2065138;28;20684;-71
2022/08/01 03:01:48;;;;;;;33.72;23.00;;;;;;;-144.27;100.00;69759.91;2065069;28;20196;-72
2022/08/01 03:02:50;;;;;;;38.85;23.48;;;;;;;-144.27;100.00;69759.91;2065166;28;20721;-71
2022/08/01 03:03:52;;;;;;;29.08;24.33;;;;;;;-144.27;100.00;69759.91;2065666;28;20199;-71
2022/08/01 03:04:54;;;;;;;28.73;23.58;;;;;;;-144.27;100.00;69759.91;2065724;28;20640;-72
2022/08/01 03:05:56;;;;;;;31.05;24.05;;;;;;;-144.27;100.00;69759.91;2056008;28;20209;-71
2022/08/01 03:06:58;;;;;;;33.50;25.13;;;;;;;-144.27;100.00;69759.91;2057049;28;20288;-72
2022/08/01 03:08:00;;;;;;;32.20;24.45;;;;;;;-144.27;100.00;69759.91;2065096;28;20189;-72
2022/08/01 03:09:03;;;;;;;37.42;25.33;;;;;;;-144.27;100.00;69759.91;2056955;28;20638;-72
2022/08/01 03:10:05;;;;;;;33.80;24.77;;;;;;;-144.27;100.00;69759.91;2057133;28;20202;-71
2022/08/01 03:11:08;;;;;;;33.15;23.65;;;;;;;-144.27;100.00;69759.91;2064929;28;20202;-72
2022/08/01 03:12:15;;;;;;;29.85;23.50;;;;;;;-144.27;100.00;69759.91;2049102;28;20261;-71
2022/08/01 03:13:18;;;;;;;33.45;24.05;;;;;;;-144.27;100.00;69759.91;2058042;28;20182;-72
2022/08/01 03:14:20;;;;;;;32.17;23.20;;;;;;;-144.27;100.00;69759.91;2065773;28;20193;-71
2022/08/01 03:15:22;;;;;;;30.58;24.02;;;;;;;-144.27;100.00;69759.91;2065681;28;20207;-71
2022/08/01 03:16:24;;;;;;;30.67;23.15;;;;;;;-144.27;100.00;69759.91;2065745;28;20196;-71
2022/08/01 03:17:26;;;;;;;33.88;25.33;;;;;;;-144.27;100.00;69759.91;2065055;28;20649;-71
2022/08/01 03:18:27;;;;;;;29.10;22.92;;;;;;;-144.27;100.00;69759.91;2064944;28;20225;-71
2022/08/01 03:19:31;;;;;;;29.67;23.27;;;;;;;-144.27;100.00;69759.91;2057571;28;20229;-71
2022/08/01 03:20:35;;;;;;;28.45;22.25;;;;;;;-144.27;100.00;69759.91;2057575;28;20938;-71
2022/08/01 03:21:38;;;;;;;29.95;23.00;;;;;;;-144.27;100.00;69759.91;2057287;28;20221;-72
2022/08/01 03:22:39;;;;;;;31.13;22.83;;;;;;;-144.27;100.00;69759.91;2057874;28;20241;-72
2022/08/01 03:23:41;;;;;;;33.75;21.85;;;;;;;-144.27;100.00;69759.91;2057671;28;20612;-71
2022/08/01 03:24:43;;;;;;;30.70;23.25;;;;;;;-144.27;100.00;69759.91;2057855;28;20194;-71
2022/08/01 03:25:47;;;;;;;26.50;23.27;;;;;;;-144.27;100.00;69759.91;2059171;28;20183;-72
2022/08/01 03:26:48;;;;;;;33.70;22.55;;;;;;;-144.27;100.00;69759.91;2066355;28;20209;-72
2022/08/01 03:27:55;;;;;;;29.98;22.75;;;;;;;-144.27;100.00;69759.91;2066465;28;20555;-72
2022/08/01 03:28:58;;;;;;;29.17;22.10;;;;;;;-144.27;100.00;69759.91;2058519;28;20190;-71
2022/08/01 03:30:00;;;;;;;30.98;23.30;;;;;;;-144.27;100.00;69759.91;2059010;28;20189;-71
2022/08/01 03:31:02;;;;;;;33.15;23.40;;;;;;;-144.27;100.00;69759.91;2058994;28;20648;-72
2022/08/01 03:32:05;;;;;;;27.83;22.75;;;;;;;-144.27;100.00;69759.91;2058980;28;20554;-72
2022/08/01 03:33:08;;;;;;;30.00;22.95;;;;;;;-144.27;100.00;69759.91;2059176;28;20629;-72
2022/08/01 03:34:11;;;;;;;34.72;22.35;;;;;;;-144.27;100.00;69759.91;2066303;28;20684;-71
2022/08/01 03:35:14;;;;;;;27.35;22.35;;;;;;;-144.27;100.00;69759.91;2066349;28;20204;-71
2022/08/01 03:36:16;;;;;;;28.23;23.15;;;;;;;-144.27;100.00;69759.91;2058505;28;20549;-72
2022/08/01 03:37:23;;;;;;;31.90;23.30;;;;;;;-144.27;100.00;69759.91;2059000;28;20186;-72
2022/08/01 03:38:28;;;;;;;29.65;23.67;;;;;;;-144.27;100.00;69759.91;2059235;28;20193;-71
2022/08/01 03:39:32;;;;;;;37.75;24.80;;;;;;;-144.27;100.00;69759.91;2058274;28;20751;-71
2022/08/01 03:40:38;;;;;;;31.92;24.08;;;;;;;-144.27;100.00;69759.91;2058383;28;20190;-72
2022/08/01 03:41:41;;;;;;;30.00;23.55;;;;;;;-144.27;100.00;69759.91;2058990;28;20202;-71
2022/08/01 03:42:46;;;;;;;29.75;23.35;;;;;;;-144.27;100.00;69759.91;2066247;28;20193;-71
2022/08/01 03:43:50;;;;;;;33.70;23.55;;;;;;;-144.27;100.00;69759.91;2066357;28;20220;-72
2022/08/01 03:44:55;;;;;;;36.03;24.08;;;;;;;-144.27;100.00;69759.91;2059077;28;20629;-72
2022/08/01 03:45:59;;;;;;;32.22;24.20;;;;;;;-144.27;100.00;69759.91;2066503;28;20208;-71
2022/08/01 03:47:03;;;;;;;31.25;24.73;;;;;;;-144.27;100.00;69759.91;2065943;28;20239;-71
2022/08/01 03:48:09;;;;;;;33.65;24.25;;;;;;;-144.27;100.00;69759.91;2066241;28;20189;-71
2022/08/01 03:49:17;;;;;;;29.40;24.08;;;;;;;-144.27;100.00;69759.91;2065915;28;20181;-72
2022/08/01 03:50:21;;;;;;;34.22;24.08;;;;;;;-144.27;100.00;69759.91;2058993;28;20185;-71
2022/08/01 03:51:23;;;;;;;32.65;24.67;;;;;;;-144.27;100.00;69759.91;2058474;28;20217;-71
2022/08/01 03:52:24;;;;;;;34.83;24.67;;;;;;;-144.27;100.00;69759.91;2058877;28;20597;-71
2022/08/01 03:53:31;;;;;;;27.73;24.33;;;;;;;-144.27;100.00;69759.91;2058877;28;20655;-71
2022/08/01 03:54:35;;;;;;;30.67;24.85;;;;;;;-144.27;100.00;69759.91;2058824;28;20200;-71
2022/08/01 03:55:38;;;;;;;29.63;24.15;;;;;;;-144.27;100.00;69759.91;2066065;28;20209;-72
2022/08/01 03:56:40;;;;;;;32.92;24.10;;;;;;;-144.27;100.00;69759.91;2066180;28;20651;-72
2022/08/01 03:57:43;;;;;;;33.15;23.60;;;;;;;-144.27;100.00;69759.91;2058807;28;20189;-72
2022/08/01 03:58:44;;;;;;;33.60;26.85;;;;;;;-144.27;100.00;69759.91;2058969;28;20772;-72
2022/08/01 03:59:46;;;;;;;32.07;27.23;;;;;;;-144.27;100.00;69759.91;2058863;28;20650;-71
2022/08/01 04:00:47;;;;;;;32.08;26.67;;;;;;;-144.27;100.00;69759.91;2058811;28;20320;-71
2022/08/01 04:01:49;;;;;;;27.52;24.10;;;;;;;-144.27;100.00;69759.91;2058860;28;20276;-71
2022/08/01 04:02:53;;;;;;;34.42;25.38;;;;;;;-144.27;100.00;69759.91;2066177;28;20633;-73
2022/08/01 04:03:56;;;;;;;33.75;25.27;;;;;;;-144.27;100.00;69759.91;2066235;28;20196;-72
2022/08/01 04:05:00;;;;;;;31.52;24.30;;;;;;;-144.27;100.00;69759.91;2058944;28;20182;-71
2022/08/01 04:06:08;;;;;;;34.08;25.73;;;;;;;-144.27;100.00;69759.91;2065576;28;20201;-71
2022/08/01 04:07:22;;;;;;;32.53;25.88;;;;;;;-144.27;100.00;69759.91;2065534;28;20173;-71
2022/08/01 04:08:25;;;;;;;34.17;24.35;;;;;;;-144.27;100.00;69759.91;2059023;28;20666;-72
2022/08/01 04:09:27;;;;;;;36.65;24.20;;;;;;;-144.27;100.00;69759.91;2058711;28;20205;-71
2022/08/01 04:10:29;;;;;;;31.55;23.92;;;;;;;-144.27;100.00;69759.91;2066250;28;20219;-71
2022/08/01 04:11:30;;;;;;;36.35;23.98;;;;;;;-144.27;100.00;69759.91;2066015;28;20633;-71
2022/08/01 04:12:32;;;;;;;35.47;23.87;;;;;;;-144.27;100.00;69759.91;2059077;28;20190;-72
2022/08/01 04:13:33;;;;;;;37.08;26.55;;;;;;;-144.27;100.00;69759.91;2058705;28;20196;-71
2022/08/01 04:14:35;;;;;;;41.33;25.00;;;;;;;-144.27;100.00;69759.91;2058785;28;20193;-71
2022/08/01 04:15:36;;;;;;;42.40;27.48;;;;;;;-144.27;100.00;69759.91;2058932;28;20201;-70
2022/08/01 04:16:39;;;;;;;37.73;25.57;;;;;;;-144.27;100.00;69759.91;2066025;28;20300;-71
2022/08/01 04:17:40;;;;;;;43.05;26.23;;;;;;;-144.27;100.00;69759.91;2065991;28;20664;-71
2022/08/01 04:18:41;;;;;;;41.87;27.80;;;;;;;-144.27;100.00;69759.91;2057768;28;20645;-73
2022/08/01 04:19:42;;;;;;;46.88;27.98;;;;;;;-144.27;100.00;69759.91;2058081;28;20306;-71
2022/08/01 04:20:44;;;;;;;52.37;28.40;;;;;;;-144.27;100.00;69759.91;2058691;28;20208;-71
2022/08/01 04:21:46;;;;;;;42.60;27.15;;;;;;;-144.27;100.00;69759.91;2058322;28;20540;-71
2022/08/01 04:22:48;;;;;;;46.90;27.15;;;;;;;-144.27;100.00;69759.91;2058780;28;20190;-71
2022/08/01 04:23:51;;;;;;;46.92;28.92;;;;;;;-144.27;100.00;69759.91;2066214;28;20254;-71
2022/08/01 04:24:56;;;;;;;52.67;29.83;;;;;;;-144.27;100.00;69759.91;2065608;28;20207;-71
2022/08/01 04:25:58;;;;;;;62.22;30.50;;;;;;;-144.27;100.00;69759.91;2058314;28;20206;-71
2022/08/01 04:27:01;;;;;;;48.15;28.90;;;;;;;-144.27;100.00;69759.91;2065964;28;20632;-71
2022/08/01 04:28:03;;;;;;;47.65;27.75;;;;;;;-144.27;100.00;69759.91;2057884;28;20202;-71
2022/08/01 04:29:06;;;;;;;47.55;29.15;;;;;;;-144.27;100.00;69759.91;2050513;28;20195;-71
2022/08/01 04:30:08;;;;;;;70.35;30.65;;;;;;;-144.27;100.00;69759.91;2058015;28;20751;-71
2022/08/01 04:31:11;;;;;;;49.83;29.02;;;;;;;-144.27;100.00;69759.91;2066163;28;20649;-71
2022/08/01 04:32:12;;;;;;;46.90;28.15;;;;;;;-144.27;100.00;69759.91;2065852;28;20239;-71
2022/08/01 04:33:16;;;;;;;57.13;31.63;;;;;;;-144.27;100.00;69759.91;2058754;28;20287;-70
2022/08/01 04:34:20;;;;;;;58.63;30.35;;;;;;;-144.27;100.00;69759.91;2058536;28;20197;-72
2022/08/01 04:35:23;;;;;;;61.40;30.83;;;;;;;-144.27;100.00;69759.91;2065850;28;20189;-72
2022/08/01 04:36:26;;;;;;;47.40;28.83;;;;;;;-144.27;100.00;69759.91;2066109;28;20213;-71
2022/08/01 04:37:33;;;;;;;54.38;31.10;;;;;;;-144.27;100.00;69759.91;2058048;28;20194;-72
2022/08/01 04:38:36;;;;;;;49.72;30.95;;;;;;;-144.27;100.00;69759.91;2058054;28;20304;-70
2022/08/01 04:39:38;;;;;;;52.50;31.02;;;;;;;-144.27;100.00;69759.91;2057935;28;20634;-70
2022/08/01 04:40:40;;;;;;;49.85;29.77;;;;;;;-144.27;100.00;69759.91;2058457;28;20229;-70
2022/08/01 04:41:42;;;;;;;48.13;29.63;;;;;;;-144.27;100.00;69759.91;2058639;28;20586;-71
2022/08/01 04:42:48;;;;;;;48.35;29.70;;;;;;;-144.27;100.00;69759.91;2058477;28;20204;-71